Time;durP1;ratioP1;P1;durP2;ratioP2;P2;SDS_P1;SDS_P2;PMS_P1;PMS_P2;Temp;Humidity;BMP_temperature;BMP_pressure;BME280_temperature;BME280_humidity;BME280_pressure;Samples;Min_cycle;Max_cycle;Signal;HPM_P1;HPM_P2
2021/08/09 00:01:07;;;;;;;0.60;0.40;;;17.00;80.00;;;;;;5075468;28;20082;-76
2021/08/09 00:03:33;;;;;;;0.50;0.30;;;17.20;79.80;;;;;;5075477;28;20028;-76
2021/08/09 00:05:58;;;;;;;0.65;0.30;;;17.30;79.50;;;;;;5048746;28;20059;-76
2021/08/09 00:08:24;;;;;;;0.85;0.40;;;17.30;79.10;;;;;;5055497;28;20079;-76
2021/08/09 00:10:50;;;;;;;0.80;0.40;;;17.40;79.00;;;;;;5055227;28;20092;-77
2021/08/09 00:13:15;;;;;;;1.02;0.40;;;17.40;79.00;;;;;;5070885;28;20115;-76
2021/08/09 00:15:41;;;;;;;0.50;0.35;;;17.40;78.80;;;;;;5054066;28;20113;-76
2021/08/09 00:18:11;;;;;;;0.60;0.30;;;17.30;79.20;;;;;;5053902;28;20062;-76
2021/08/09 00:20:37;;;;;;;0.60;0.40;;;17.40;79.10;;;;;;5054347;28;20419;-77
2021/08/09 00:23:03;;;;;;;0.70;0.50;;;17.40;79.00;;;;;;5055511;28;20025;-76
2021/08/09 00:25:28;;;;;;;0.68;0.30;;;17.30;79.10;;;;;;5064645;28;20028;-76
2021/08/09 00:27:54;;;;;;;0.90;0.30;;;17.30;79.60;;;;;;5073983;28;20067;-76
2021/08/09 00:30:20;;;;;;;0.52;0.30;;;17.20;80.00;;;;;;5073980;28;20406;-76
2021/08/09 00:32:45;;;;;;;0.65;0.40;;;17.30;79.60;;;;;;5065511;28;20096;-76
2021/08/09 00:35:16;;;;;;;0.38;0.30;;;17.20;79.70;;;;;;5055438;28;20025;-76
2021/08/09 00:37:41;;;;;;;;;;;17.30;79.80;;;;;;5057340;28;20024;-77
2021/08/09 00:40:08;;;;;;;1.15;0.50;;;17.20;79.80;;;;;;5057024;28;20367;-77
2021/08/09 00:42:33;;;;;;;0.65;0.40;;;17.30;79.90;;;;;;5073913;28;20549;-76
2021/08/09 00:44:59;;;;;;;1.25;0.50;;;17.20;80.00;;;;;;5073220;28;20025;-77
2021/08/09 00:47:25;;;;;;;0.80;0.40;;;17.30;79.70;;;;;;5073934;28;20127;-76
2021/08/09 00:49:50;;;;;;;1.10;0.40;;;17.20;80.10;;;;;;5068142;28;20033;-77
2021/08/09 00:52:22;;;;;;;1.10;0.45;;;17.10;80.20;;;;;;5053844;28;20021;-76
2021/08/09 00:54:48;;;;;;;0.82;0.40;;;17.00;80.40;;;;;;5055300;28;20021;-76
2021/08/09 00:57:14;;;;;;;0.60;0.30;;;17.10;80.10;;;;;;5054921;28;20028;-77
2021/08/09 00:59:40;;;;;;;1.08;0.40;;;16.90;80.70;;;;;;5053890;28;20837;-77
2021/08/09 01:02:06;;;;;;;0.70;0.50;;;17.00;80.70;;;;;;5056015;28;20017;-76
2021/08/09 01:04:31;;;;;;;0.80;0.50;;;17.00;80.50;;;;;;5065004;28;20123;-76
2021/08/09 01:06:57;;;;;;;0.50;0.38;;;17.10;80.50;;;;;;5078686;28;20470;-77
2021/08/09 01:09:32;;;;;;;0.55;0.35;;;17.10;80.30;;;;;;5077216;28;20036;-76
2021/08/09 01:12:06;;;;;;;0.77;0.40;;;17.00;80.50;;;;;;5070414;28;20047;-76
2021/08/09 01:14:57;;;;;;;0.90;0.40;;;17.00;80.80;;;;;;5058629;28;20056;-76
2021/08/09 01:17:27;;;;;;;1.25;0.50;;;17.00;80.60;;;;;;5057640;28;20518;-76
2021/08/09 01:20:28;;;;;;;0.50;0.30;;;17.10;80.50;;;;;;5058602;28;20033;-76
2021/08/09 01:22:53;;;;;;;0.65;0.40;;;17.10;80.30;;;;;;5074149;28;20064;-76
2021/08/09 01:25:34;;;;;;;0.75;0.40;;;17.10;80.50;;;;;;5058214;28;20039;-76
2021/08/09 01:28:02;;;;;;;1.25;0.60;;;17.00;80.60;;;;;;5058487;28;20086;-77
2021/08/09 01:30:29;;;;;;;0.68;0.35;;;17.00;80.90;;;;;;5058457;28;20052;-76
2021/08/09 01:32:55;;;;;;;1.17;0.50;;;17.00;81.10;;;;;;5058074;28;20104;-77
2021/08/09 01:35:24;;;;;;;0.95;0.50;;;17.00;81.20;;;;;;5073879;28;20047;-76
2021/08/09 01:37:55;;;;;;;0.60;0.40;;;17.00;81.00;;;;;;5057177;28;20024;-76
2021/08/09 01:40:22;;;;;;;0.98;0.50;;;16.90;81.20;;;;;;5060508;28;20024;-76
2021/08/09 01:42:48;;;;;;;0.80;0.50;;;17.00;81.20;;;;;;5072663;28;20103;-76
2021/08/09 01:45:15;;;;;;;1.08;0.40;;;17.10;81.10;;;;;;5062423;28;20020;-77
2021/08/09 01:47:41;;;;;;;0.50;0.30;;;17.10;80.60;;;;;;5076563;28;20033;-77
2021/08/09 01:50:09;;;;;;;1.05;0.47;;;17.20;80.40;;;;;;5072674;28;20488;-77
2021/08/09 01:52:37;;;;;;;1.13;0.40;;;17.30;80.30;;;;;;5057921;28;20542;-76
2021/08/09 01:55:04;;;;;;;1.02;0.50;;;17.30;80.20;;;;;;5057681;28;20564;-76
2021/08/09 01:57:29;;;;;;;0.68;0.45;;;17.30;80.20;;;;;;5057987;28;20009;-76
2021/08/09 01:59:55;;;;;;;0.88;0.45;;;17.20;80.60;;;;;;5057742;28;20078;-76
2021/08/09 02:02:27;;;;;;;1.00;0.50;;;17.20;80.80;;;;;;5057549;28;20491;-77
2021/08/09 02:04:53;;;;;;;1.42;0.43;;;17.20;80.90;;;;;;5057717;28;20056;-77
2021/08/09 02:07:20;;;;;;;0.90;0.50;;;17.20;81.30;;;;;;5057592;28;20048;-76
2021/08/09 02:09:46;;;;;;;0.95;0.57;;;17.10;81.80;;;;;;5057332;28;20036;-76
2021/08/09 02:12:15;;;;;;;1.67;0.50;;;17.20;82.00;;;;;;5056519;28;20104;-76
2021/08/09 02:14:51;;;;;;;0.90;0.38;;;17.00;82.50;;;;;;5057806;28;20120;-76
2021/08/09 02:17:20;;;;;;;0.80;0.50;;;17.10;82.30;;;;;;5055934;28;20071;-76
2021/08/09 02:19:50;;;;;;;0.80;0.40;;;17.10;82.40;;;;;;5055984;28;20083;-76
2021/08/09 02:22:28;;;;;;;0.85;0.45;;;17.00;82.50;;;;;;5057333;28;20484;-76
2021/08/09 02:25:14;;;;;;;1.00;0.40;;;16.90;83.20;;;;;;5073046;28;20499;-76
2021/08/09 02:27:50;;;;;;;0.73;0.43;;;17.00;83.40;;;;;;5056144;28;20071;-76
2021/08/09 02:30:19;;;;;;;0.98;0.45;;;16.90;83.70;;;;;;5057149;28;20033;-76
2021/08/09 02:32:46;;;;;;;0.50;0.30;;;16.80;83.90;;;;;;5063748;28;20522;-76
2021/08/09 02:35:15;;;;;;;0.57;0.38;;;16.70;84.60;;;;;;5057174;28;20036;-76
2021/08/09 02:37:42;;;;;;;0.98;0.45;;;16.80;84.50;;;;;;5066483;28;20558;-76
2021/08/09 02:40:09;;;;;;;0.95;0.50;;;16.90;84.10;;;;;;5057207;28;20055;-76
2021/08/09 02:42:35;;;;;;;0.90;0.50;;;16.90;84.20;;;;;;5056790;28;20041;-76
2021/08/09 02:45:01;;;;;;;1.10;0.50;;;16.90;84.20;;;;;;5059487;28;20158;-76
2021/08/09 02:47:28;;;;;;;1.20;0.50;;;16.80;84.70;;;;;;5076805;28;20025;-76
2021/08/09 02:49:55;;;;;;;0.70;0.43;;;16.90;84.40;;;;;;5072837;28;20036;-76
2021/08/09 02:52:22;;;;;;;0.57;0.30;;;16.90;84.40;;;;;;5056865;28;20017;-76
2021/08/09 02:54:48;;;;;;;0.68;0.40;;;16.90;84.60;;;;;;5056693;28;20021;-76
2021/08/09 02:57:16;;;;;;;1.55;0.70;;;16.90;84.40;;;;;;5056984;28;20025;-76
2021/08/09 02:59:41;;;;;;;1.13;0.60;;;16.90;84.60;;;;;;5071852;28;20078;-76
2021/08/09 03:02:09;;;;;;;0.63;0.52;;;16.90;84.50;;;;;;5056507;28;20028;-76
2021/08/09 03:04:37;;;;;;;1.05;0.55;;;17.00;84.10;;;;;;5055090;28;20029;-76
2021/08/09 03:07:06;;;;;;;1.35;0.50;;;17.00;84.10;;;;;;5056352;28;20017;-76
2021/08/09 03:09:34;;;;;;;1.02;0.50;;;16.90;84.00;;;;;;5070623;28;20036;-77
2021/08/09 03:12:01;;;;;;;0.90;0.50;;;16.90;84.40;;;;;;5055141;28;20090;-76
2021/08/09 03:14:35;;;;;;;0.80;0.50;;;16.80;84.50;;;;;;5056421;28;20033;-76
2021/08/09 03:17:03;;;;;;;0.73;0.57;;;16.80;84.70;;;;;;5071431;28;20021;-76
2021/08/09 03:19:29;;;;;;;1.27;0.55;;;16.80;84.50;;;;;;5056367;28;20025;-76
2021/08/09 03:21:57;;;;;;;0.43;0.30;;;16.80;84.50;;;;;;5056195;28;20126;-77
2021/08/09 03:24:24;;;;;;;1.08;0.50;;;16.70;84.70;;;;;;5068435;28;20036;-77
2021/08/09 03:26:51;;;;;;;0.40;0.28;;;16.80;84.70;;;;;;5075389;28;20445;-76
2021/08/09 03:29:17;;;;;;;0.47;0.32;;;16.80;84.80;;;;;;5056227;28;20029;-76
2021/08/09 03:31:46;;;;;;;1.13;0.40;;;16.80;84.70;;;;;;5067803;28;20624;-76
2021/08/09 03:34:12;;;;;;;0.70;0.40;;;16.80;84.40;;;;;;5074869;28;20479;-76
2021/08/09 03:36:41;;;;;;;0.82;0.38;;;16.80;84.50;;;;;;5069872;28;20128;-76
2021/08/09 03:39:08;;;;;;;0.65;0.50;;;16.90;84.20;;;;;;5054612;28;20466;-76
2021/08/09 03:41:35;;;;;;;0.50;0.40;;;16.80;84.10;;;;;;5068453;28;20507;-76
2021/08/09 03:44:00;;;;;;;0.85;0.40;;;16.90;84.10;;;;;;5070526;28;20484;-76
2021/08/09 03:46:26;;;;;;;1.10;0.40;;;16.80;84.30;;;;;;5086653;28;20078;-76
2021/08/09 03:48:54;;;;;;;0.50;0.30;;;16.80;84.30;;;;;;5095939;28;20501;-76
2021/08/09 03:51:20;;;;;;;1.17;0.50;;;16.80;84.30;;;;;;5074878;28;20039;-76
2021/08/09 03:53:45;;;;;;;1.15;0.40;;;16.80;84.50;;;;;;5074403;28;20025;-76
2021/08/09 03:56:11;;;;;;;0.47;0.30;;;16.80;84.40;;;;;;5075956;28;20356;-76
2021/08/09 03:58:36;;;;;;;1.35;0.60;;;16.80;84.30;;;;;;5061504;28;20029;-76
2021/08/09 04:01:03;;;;;;;0.65;0.35;;;16.80;84.10;;;;;;5055635;28;20230;-76
2021/08/09 04:03:30;;;;;;;0.75;0.40;;;16.80;84.00;;;;;;5054395;28;20119;-76
2021/08/09 04:05:56;;;;;;;0.70;0.45;;;16.70;84.70;;;;;;5055532;28;20037;-76
2021/08/09 04:08:21;;;;;;;0.75;0.40;;;16.70;84.70;;;;;;5055514;28;20376;-76
2021/08/09 04:10:47;;;;;;;0.73;0.40;;;16.70;84.50;;;;;;5069647;28;20134;-76
2021/08/09 04:13:12;;;;;;;0.80;0.43;;;16.70;84.50;;;;;;5074486;28;20099;-76
2021/08/09 04:15:38;;;;;;;0.52;0.40;;;16.70;84.40;;;;;;5062961;28;20083;-76
2021/08/09 04:18:04;;;;;;;0.57;0.40;;;16.70;84.40;;;;;;5055447;28;20055;-76
2021/08/09 04:20:30;;;;;;;0.60;0.30;;;16.70;84.80;;;;;;5054117;28;20480;-76
2021/08/09 04:22:58;;;;;;;0.82;0.50;;;16.70;84.80;;;;;;5055346;28;20029;-76
2021/08/09 04:25:27;;;;;;;0.77;0.40;;;16.50;85.10;;;;;;5055597;28;20025;-76
2021/08/09 04:27:53;;;;;;;1.10;0.60;;;16.50;85.20;;;;;;5055483;28;20061;-76
2021/08/09 04:30:18;;;;;;;0.73;0.40;;;16.50;85.50;;;;;;5070661;28;20879;-76
2021/08/09 04:32:44;;;;;;;1.08;0.40;;;16.50;85.50;;;;;;5073977;28;20040;-76
2021/08/09 04:35:11;;;;;;;0.70;0.40;;;16.50;85.20;;;;;;5069569;28;20035;-76
2021/08/09 04:37:39;;;;;;;0.98;0.40;;;16.50;85.20;;;;;;5063090;28;20108;-76
2021/08/09 04:40:05;;;;;;;0.65;0.45;;;16.50;85.50;;;;;;5075331;28;20036;-75
2021/08/09 04:42:31;;;;;;;1.02;0.50;;;16.50;85.20;;;;;;5078025;28;20049;-76
2021/08/09 04:44:58;;;;;;;0.98;0.50;;;16.60;84.90;;;;;;5077916;28;20042;-76
2021/08/09 04:47:24;;;;;;;0.88;0.40;;;16.50;85.00;;;;;;5079380;28;20032;-76
2021/08/09 04:49:49;;;;;;;0.75;0.43;;;16.50;84.90;;;;;;5061203;28;20439;-76
2021/08/09 04:52:17;;;;;;;0.75;0.50;;;16.40;85.40;;;;;;5057659;28;20025;-76
2021/08/09 04:54:42;;;;;;;1.15;0.47;;;16.40;85.50;;;;;;5057872;28;20091;-76
2021/08/09 04:57:11;;;;;;;0.77;0.40;;;16.50;85.20;;;;;;5057917;28;20025;-76
2021/08/09 04:59:36;;;;;;;0.80;0.40;;;16.50;84.80;;;;;;5059184;28;20025;-76
2021/08/09 05:02:02;;;;;;;0.98;0.50;;;16.50;84.90;;;;;;5074455;28;20063;-76
2021/08/09 05:04:28;;;;;;;0.65;0.40;;;16.50;85.00;;;;;;5058936;28;20043;-76
2021/08/09 05:06:54;;;;;;;0.50;0.30;;;16.50;85.30;;;;;;5057430;28;20029;-76
2021/08/09 05:09:19;;;;;;;0.90;0.43;;;16.40;85.10;;;;;;5074247;28;20120;-76
2021/08/09 05:11:45;;;;;;;1.20;0.57;;;16.50;85.20;;;;;;5057390;28;20025;-77
2021/08/09 05:14:13;;;;;;;0.60;0.38;;;16.40;85.50;;;;;;5058778;28;20013;-75
2021/08/09 05:16:41;;;;;;;0.77;0.40;;;16.40;85.40;;;;;;5071235;28;20025;-76
2021/08/09 05:19:08;;;;;;;1.15;0.60;;;16.40;85.50;;;;;;5077610;28;20020;-76
2021/08/09 05:21:34;;;;;;;0.82;0.40;;;16.50;85.00;;;;;;5078638;28;20028;-76
2021/08/09 05:24:08;;;;;;;0.40;0.30;;;16.60;84.90;;;;;;5078920;28;20433;-76
2021/08/09 05:26:34;;;;;;;0.40;0.30;;;16.60;84.80;;;;;;5078049;28;20028;-76
2021/08/09 05:28:59;;;;;;;0.50;0.40;;;16.60;84.60;;;;;;5078173;28;20393;-77
2021/08/09 05:31:26;;;;;;;0.60;0.40;;;16.70;84.50;;;;;;5077242;28;20031;-76
2021/08/09 05:33:54;;;;;;;0.60;0.30;;;16.60;84.90;;;;;;5062737;28;20395;-76
2021/08/09 05:36:20;;;;;;;0.50;0.40;;;16.70;84.50;;;;;;5056865;28;20079;-76
2021/08/09 05:38:45;;;;;;;0.43;0.32;;;16.70;84.70;;;;;;5057124;28;20025;-76
2021/08/09 05:41:11;;;;;;;1.25;0.40;;;16.70;84.70;;;;;;5068179;28;20261;-76
2021/08/09 05:43:37;;;;;;;0.70;0.40;;;16.70;84.60;;;;;;5077353;28;20060;-76
2021/08/09 05:46:02;;;;;;;0.43;0.30;;;16.70;84.40;;;;;;5075651;28;20032;-76
2021/08/09 05:48:28;;;;;;;0.30;0.30;;;16.70;84.50;;;;;;5070848;28;20033;-76
2021/08/09 05:50:54;;;;;;;0.50;0.40;;;16.80;84.60;;;;;;5055607;28;20021;-76
2021/08/09 05:53:20;;;;;;;0.77;0.40;;;16.70;85.10;;;;;;5056989;28;20025;-76
2021/08/09 05:55:46;;;;;;;0.80;0.40;;;16.80;85.00;;;;;;5055543;28;20021;-76
2021/08/09 05:58:11;;;;;;;0.55;0.30;;;16.90;84.60;;;;;;5056793;28;20025;-76
2021/08/09 06:00:37;;;;;;;0.57;0.40;;;17.00;84.30;;;;;;5055325;28;20024;-76
2021/08/09 06:03:03;;;;;;;0.82;0.47;;;17.00;83.70;;;;;;5055394;28;20040;-76
2021/08/09 06:05:29;;;;;;;0.68;0.40;;;17.10;83.70;;;;;;5056996;28;20100;-76
2021/08/09 06:07:55;;;;;;;1.15;0.40;;;17.00;84.00;;;;;;5056552;28;20118;-76
2021/08/09 06:10:22;;;;;;;0.60;0.40;;;17.00;84.20;;;;;;5056260;28;20025;-76
2021/08/09 06:12:48;;;;;;;0.45;0.35;;;16.90;84.30;;;;;;5071553;28;20124;-75
2021/08/09 06:15:14;;;;;;;1.05;0.47;;;16.90;84.80;;;;;;5065502;28;20056;-76
2021/08/09 06:17:40;;;;;;;0.60;0.50;;;17.00;84.60;;;;;;5076357;28;20021;-76
2021/08/09 06:20:06;;;;;;;0.77;0.40;;;17.00;85.00;;;;;;5075193;28;20037;-76
2021/08/09 06:22:32;;;;;;;0.60;0.40;;;17.00;85.00;;;;;;5075051;28;20111;-76
2021/08/09 06:24:57;;;;;;;0.68;0.40;;;17.10;84.80;;;;;;5059129;28;20057;-76
2021/08/09 06:27:23;;;;;;;0.75;0.40;;;17.00;84.90;;;;;;5056212;28;20060;-76
2021/08/09 06:29:49;;;;;;;0.88;0.40;;;17.00;85.00;;;;;;5054988;28;20039;-76
2021/08/09 06:32:15;;;;;;;0.90;0.50;;;17.00;85.00;;;;;;5072470;28;20033;-76
2021/08/09 06:34:41;;;;;;;0.80;0.40;;;17.10;84.70;;;;;;5068579;28;20028;-76
2021/08/09 06:37:07;;;;;;;0.40;0.30;;;17.10;84.50;;;;;;5054815;28;20021;-76
2021/08/09 06:39:32;;;;;;;0.73;0.40;;;17.10;84.70;;;;;;5056124;28;20032;-76
2021/08/09 06:42:02;;;;;;;1.30;0.40;;;17.00;85.30;;;;;;5033777;28;1142584;-79
2021/08/09 06:44:30;;;;;;;0.50;0.40;;;17.10;85.40;;;;;;5058059;28;20039;-76
2021/08/09 06:46:56;;;;;;;1.45;0.40;;;17.10;85.40;;;;;;5056925;28;20035;-76
2021/08/09 06:49:23;;;;;;;0.75;0.40;;;17.20;85.00;;;;;;5056787;28;20029;-76
2021/08/09 06:51:48;;;;;;;1.00;0.50;;;17.20;85.00;;;;;;5055619;28;20373;-76
2021/08/09 06:54:14;;;;;;;1.38;0.60;;;17.20;85.10;;;;;;5056814;28;20104;-76
2021/08/09 06:56:40;;;;;;;1.15;0.50;;;17.30;85.10;;;;;;5056623;28;20028;-76
2021/08/09 06:59:05;;;;;;;0.73;0.40;;;17.30;84.90;;;;;;5056573;28;20029;-75
2021/08/09 07:01:31;;;;;;;0.77;0.40;;;17.30;85.00;;;;;;5056272;28;20039;-76
2021/08/09 07:03:57;;;;;;;0.90;0.47;;;17.20;84.80;;;;;;5055348;28;20377;-77
2021/08/09 07:06:23;;;;;;;1.00;0.40;;;17.20;85.30;;;;;;5070832;28;20450;-76
2021/08/09 07:08:50;;;;;;;0.63;0.38;;;17.30;84.80;;;;;;5055494;28;20453;-76
2021/08/09 07:11:16;;;;;;;0.50;0.38;;;17.30;84.70;;;;;;5071807;28;20025;-76
2021/08/09 07:13:42;;;;;;;0.60;0.40;;;17.30;85.10;;;;;;5056669;28;20436;-76
2021/08/09 07:16:08;;;;;;;0.50;0.40;;;17.30;85.40;;;;;;5056657;28;20029;-76
2021/08/09 07:18:34;;;;;;;0.77;0.43;;;17.30;85.20;;;;;;5056504;28;20440;-76
2021/08/09 07:21:00;;;;;;;0.43;0.32;;;17.40;85.70;;;;;;5056162;28;20021;-76
2021/08/09 07:23:26;;;;;;;1.02;0.50;;;17.40;85.00;;;;;;5071930;28;20155;-76
2021/08/09 07:25:52;;;;;;;0.60;0.40;;;17.50;84.80;;;;;;5071560;28;20112;-76
2021/08/09 07:28:18;;;;;;;0.80;0.40;;;17.40;85.80;;;;;;5054753;28;20017;-76
2021/08/09 07:30:44;;;;;;;0.70;0.40;;;17.40;85.70;;;;;;5056141;28;20033;-76
2021/08/09 07:33:09;;;;;;;0.90;0.47;;;17.40;85.40;;;;;;5056064;28;20488;-77
2021/08/09 07:35:35;;;;;;;0.73;0.40;;;17.40;85.60;;;;;;5056066;28;20025;-77
2021/08/09 07:38:01;;;;;;;1.10;0.40;;;17.60;85.50;;;;;;5059425;28;20032;-76
2021/08/09 07:40:26;;;;;;;0.60;0.40;;;17.80;84.60;;;;;;5074706;28;20021;-77
2021/08/09 07:42:52;;;;;;;1.08;0.50;;;18.10;84.20;;;;;;5075786;28;20131;-76
2021/08/09 07:45:18;;;;;;;0.98;0.50;;;18.20;83.40;;;;;;5070283;28;20025;-77
2021/08/09 07:47:44;;;;;;;0.90;0.40;;;18.20;83.10;;;;;;5055754;28;20025;-76
2021/08/09 07:50:10;;;;;;;0.60;0.40;;;18.20;83.00;;;;;;5055806;28;20036;-76
2021/08/09 07:52:36;;;;;;;0.52;0.38;;;18.20;83.00;;;;;;5055802;28;20060;-77
2021/08/09 07:55:03;;;;;;;0.70;0.40;;;18.10;83.90;;;;;;5056101;28;20021;-76
2021/08/09 07:57:28;;;;;;;0.68;0.30;;;18.00;83.50;;;;;;5054360;28;20029;-76
2021/08/09 07:59:54;;;;;;;0.35;0.30;;;18.00;83.20;;;;;;5070001;28;20042;-77
2021/08/09 08:02:20;;;;;;;0.40;0.20;;;18.00;83.10;;;;;;5055654;28;20032;-77
2021/08/09 08:04:46;;;;;;;0.63;0.40;;;18.00;83.00;;;;;;5055618;28;20441;-76
2021/08/09 08:07:11;;;;;;;0.40;0.20;;;18.10;83.10;;;;;;5055648;28;20029;-76
2021/08/09 08:09:37;;;;;;;1.40;0.43;;;18.00;83.00;;;;;;5063455;28;20040;-76
2021/08/09 08:12:03;;;;;;;0.88;0.40;;;17.90;83.80;;;;;;5075713;28;20024;-76
2021/08/09 08:14:29;;;;;;;0.60;0.38;;;17.90;83.60;;;;;;5074418;28;20055;-76
2021/08/09 08:16:55;;;;;;;0.65;0.40;;;17.70;84.00;;;;;;5072962;28;20029;-76
2021/08/09 08:19:21;;;;;;;0.82;0.30;;;17.70;85.10;;;;;;5074361;28;20112;-76
2021/08/09 08:21:47;;;;;;;0.65;0.40;;;17.80;84.30;;;;;;5074414;28;20028;-76
2021/08/09 08:24:13;;;;;;;0.70;0.30;;;17.80;85.00;;;;;;5055327;28;20946;-77
2021/08/09 08:26:39;;;;;;;1.02;0.40;;;17.60;85.20;;;;;;5055430;28;20029;-77
2021/08/09 08:29:05;;;;;;;0.88;0.50;;;17.80;85.30;;;;;;5061638;28;20123;-77
2021/08/09 08:31:30;;;;;;;1.00;0.40;;;18.00;85.00;;;;;;5075423;28;20031;-77
2021/08/09 08:33:56;;;;;;;0.40;0.30;;;18.00;84.90;;;;;;5063042;28;20048;-77
2021/08/09 08:36:22;;;;;;;0.68;0.38;;;18.10;84.90;;;;;;5055255;28;20036;-77
2021/08/09 08:38:48;;;;;;;1.08;0.40;;;18.40;84.40;;;;;;5070435;28;20086;-77
2021/08/09 08:41:16;;;;;;;1.08;0.40;;;18.50;84.20;;;;;;5066383;28;20040;-77
2021/08/09 08:43:42;;;;;;;0.45;0.20;;;19.20;81.60;;;;;;5069986;28;20102;-77
2021/08/09 08:46:08;;;;;;;0.68;0.30;;;19.40;80.20;;;;;;5055171;28;20457;-77
2021/08/09 08:48:35;;;;;;;0.80;0.30;;;19.80;79.60;;;;;;5054879;28;20029;-77
2021/08/09 08:51:02;;;;;;;0.57;0.30;;;20.00;79.00;;;;;;5055075;28;20075;-77
2021/08/09 08:53:34;;;;;;;0.30;0.20;;;20.80;77.30;;;;;;5055165;28;20017;-77
2021/08/09 08:56:03;;;;;;;0.38;0.20;;;21.20;75.80;;;;;;5054034;28;20060;-76
2021/08/09 08:58:28;;;;;;;0.30;0.20;;;21.00;75.80;;;;;;5053557;28;20033;-77
2021/08/09 09:00:54;;;;;;;0.60;0.30;;;21.10;73.70;;;;;;5053851;28;20017;-77
2021/08/09 09:03:25;;;;;;;0.73;0.17;;;21.10;74.70;;;;;;5055058;28;20571;-76
2021/08/09 09:06:01;;;;;;;0.60;0.20;;;21.60;73.70;;;;;;5053680;28;20028;-76
2021/08/09 09:08:41;;;;;;;0.35;0.20;;;21.70;72.50;;;;;;5054937;28;20029;-77
2021/08/09 09:11:33;;;;;;;0.38;0.20;;;22.60;70.00;;;;;;5053814;28;20472;-77
2021/08/09 09:14:04;;;;;;;0.17;0.10;;;22.90;67.90;;;;;;5054943;28;20051;-77
2021/08/09 09:16:47;;;;;;;0.35;0.10;;;23.20;67.20;;;;;;5057215;28;20021;-77
2021/08/09 09:19:38;;;;;;;0.52;0.10;;;22.30;66.90;;;;;;5055033;28;20093;-77
2021/08/09 09:22:09;;;;;;;0.10;0.00;;;21.60;70.00;;;;;;5054693;28;20021;-77
2021/08/09 09:24:45;;;;;;;0.40;0.10;;;21.10;70.70;;;;;;5073327;28;20040;-77
2021/08/09 09:27:32;;;;;;;0.38;0.10;;;20.70;72.30;;;;;;5058592;28;20055;-77
2021/08/09 09:29:58;;;;;;;0.20;0.10;;;21.20;72.30;;;;;;5058597;28;20083;-77
2021/08/09 09:32:26;;;;;;;0.10;0.10;;;21.70;71.20;;;;;;5056929;28;20035;-77
2021/08/09 09:34:53;;;;;;;0.35;0.20;;;21.90;69.50;;;;;;5058290;28;20097;-77
2021/08/09 09:37:29;;;;;;;0.47;0.25;;;22.80;68.20;;;;;;5058376;28;20396;-77
2021/08/09 09:40:08;;;;;;;0.20;0.10;;;24.10;64.90;;;;;;5058518;28;20036;-77
2021/08/09 09:42:39;;;;;;;0.30;0.10;;;24.50;63.30;;;;;;5076998;28;20052;-77
2021/08/09 09:45:26;;;;;;;0.20;0.10;;;24.50;60.50;;;;;;5076819;28;20040;-77
2021/08/09 09:48:09;;;;;;;0.30;0.10;;;25.70;58.90;;;;;;5078030;28;20032;-77
2021/08/09 09:50:37;;;;;;;0.17;0.10;;;25.50;56.90;;;;;;5073724;28;20021;-77
2021/08/09 09:53:16;;;;;;;0.10;0.10;;;25.20;57.70;;;;;;5058031;28;20056;-77
2021/08/09 09:55:43;;;;;;;0.38;0.10;;;24.80;57.20;;;;;;5058146;28;20530;-77
2021/08/09 09:58:09;;;;;;;0.30;0.10;;;24.50;58.50;;;;;;5066953;28;20074;-77
2021/08/09 10:00:35;;;;;;;0.00;0.00;;;24.30;60.50;;;;;;5057916;28;20036;-77
2021/08/09 10:03:01;;;;;;;0.57;0.28;;;23.40;61.20;;;;;;5058034;28;20835;-77
2021/08/09 10:05:27;;;;;;;0.32;0.20;;;23.40;62.30;;;;;;5057862;28;20032;-78
2021/08/09 10:07:54;;;;;;;0.20;0.10;;;23.20;62.80;;;;;;5057640;28;20064;-77
2021/08/09 10:10:23;;;;;;;0.55;0.13;;;23.80;62.90;;;;;;5057513;28;20037;-77
2021/08/09 10:12:51;;;;;;;0.20;0.10;;;24.20;60.30;;;;;;5072054;28;20017;-77
2021/08/09 10:15:19;;;;;;;0.22;0.13;;;24.30;60.00;;;;;;5057669;28;20029;-77
2021/08/09 10:17:47;;;;;;;0.10;0.00;;;25.10;57.60;;;;;;5057439;28;20013;-77
2021/08/09 10:20:16;;;;;;;0.10;0.10;;;25.00;57.80;;;;;;5057371;28;20032;-77
2021/08/09 10:23:00;;;;;;;0.20;0.10;;;25.00;58.00;;;;;;5068684;28;20032;-77
2021/08/09 10:25:50;;;;;;;0.25;0.10;;;24.70;57.90;;;;;;5078114;28;20076;-77
2021/08/09 10:28:16;;;;;;;;;;;24.70;59.10;;;;;;5087776;28;20500;-77
2021/08/09 10:30:42;;;;;;;0.52;0.20;;;24.70;58.80;;;;;;5081897;28;19913;-77
2021/08/09 10:33:09;;;;;;;0.30;0.10;;;24.70;59.10;;;;;;5057254;28;20033;-77
2021/08/09 10:35:35;;;;;;;0.25;0.10;;;24.50;57.40;;;;;;5056157;28;20066;-77
2021/08/09 10:38:34;;;;;;;0.00;0.00;;;24.50;59.00;;;;;;5057110;28;20070;-77
2021/08/09 10:41:06;;;;;;;0.10;0.10;;;23.80;60.50;;;;;;5062743;28;20040;-77
2021/08/09 10:43:32;;;;;;;0.00;0.00;;;23.30;60.40;;;;;;5076979;28;20044;-77
2021/08/09 10:45:58;;;;;;;0.10;0.10;;;23.30;61.70;;;;;;5077052;28;20433;-77
2021/08/09 10:48:43;;;;;;;0.17;0.10;;;22.70;63.00;;;;;;5059638;28;20036;-77
2021/08/09 10:51:08;;;;;;;0.32;0.17;;;22.80;63.80;;;;;;5056889;28;20033;-77
2021/08/09 10:53:34;;;;;;;0.30;0.10;;;23.10;63.20;;;;;;5056928;28;20035;-77
2021/08/09 10:56:01;;;;;;;0.30;0.10;;;23.30;62.90;;;;;;5056667;28;20104;-76
2021/08/09 10:58:42;;;;;;;0.20;0.10;;;23.40;62.90;;;;;;5056921;28;20017;-77
2021/08/09 11:01:12;;;;;;;0.08;0.08;;;23.50;62.90;;;;;;5056798;28;20400;-77
2021/08/09 11:04:00;;;;;;;0.20;0.10;;;23.30;62.40;;;;;;5056507;28;20132;-77
2021/08/09 11:06:55;;;;;;;0.25;0.10;;;23.30;62.20;;;;;;5056888;28;20040;-78
2021/08/09 11:09:35;;;;;;;0.17;0.10;;;23.40;63.30;;;;;;5063410;28;20029;-77
2021/08/09 11:12:19;;;;;;;0.20;0.10;;;23.30;62.20;;;;;;5076546;28;20032;-77
2021/08/09 11:15:11;;;;;;;0.40;0.10;;;23.50;62.30;;;;;;5076394;28;20103;-77
2021/08/09 11:17:37;;;;;;;0.13;0.10;;;23.90;62.00;;;;;;5078190;28;20414;-77
2021/08/09 11:20:10;;;;;;;0.20;0.10;;;23.70;62.10;;;;;;5096663;28;20024;-77
2021/08/09 11:22:36;;;;;;;0.30;0.10;;;23.80;61.00;;;;;;5081154;28;20390;-77
2021/08/09 11:25:03;;;;;;;0.30;0.10;;;23.90;60.50;;;;;;5076304;28;20028;-77
2021/08/09 11:27:29;;;;;;;0.20;0.10;;;24.20;59.90;;;;;;5060199;28;20037;-77
2021/08/09 11:29:56;;;;;;;0.15;0.15;;;23.80;58.50;;;;;;5056171;28;20029;-77
2021/08/09 11:32:42;;;;;;;0.32;0.10;;;24.00;58.10;;;;;;5055799;28;20025;-77
2021/08/09 11:35:09;;;;;;;0.50;0.10;;;24.00;57.70;;;;;;5056097;28;20025;-77
2021/08/09 11:37:53;;;;;;;0.40;0.20;;;24.00;60.00;;;;;;5056048;28;20480;-77
2021/08/09 11:40:38;;;;;;;0.30;0.10;;;24.30;58.40;;;;;;5057453;28;20028;-77
2021/08/09 11:43:04;;;;;;;0.10;0.10;;;24.60;59.10;;;;;;5055821;28;20053;-77
2021/08/09 11:45:30;;;;;;;0.10;0.10;;;24.80;57.20;;;;;;5055631;28;20027;-77
2021/08/09 11:47:56;;;;;;;0.40;0.10;;;24.50;57.90;;;;;;5055598;28;20420;-77
2021/08/09 11:50:23;;;;;;;0.10;0.10;;;24.60;58.30;;;;;;5055666;28;20039;-77
2021/08/09 11:52:50;;;;;;;0.20;0.10;;;24.90;58.80;;;;;;5055862;28;20021;-77
2021/08/09 11:55:22;;;;;;;0.15;0.10;;;25.00;57.10;;;;;;5055678;28;20017;-77
2021/08/09 11:57:48;;;;;;;0.20;0.10;;;25.00;56.80;;;;;;5055585;28;20031;-77
2021/08/09 12:00:15;;;;;;;0.22;0.10;;;24.60;57.80;;;;;;5055696;28;20037;-77
2021/08/09 12:03:07;;;;;;;0.13;0.10;;;24.30;59.70;;;;;;5055541;28;20033;-77
2021/08/09 12:05:33;;;;;;;0.10;0.10;;;24.30;59.50;;;;;;5055631;28;20025;-77
2021/08/09 12:08:03;;;;;;;0.30;0.10;;;23.80;60.40;;;;;;5055676;28;20041;-77
2021/08/09 12:10:29;;;;;;;0.30;0.10;;;23.50;61.80;;;;;;5053968;28;20036;-77
2021/08/09 12:12:55;;;;;;;0.10;0.10;;;23.30;62.90;;;;;;5075026;28;20032;-77
2021/08/09 12:15:21;;;;;;;0.20;0.10;;;23.20;62.30;;;;;;5074190;28;20021;-77
2021/08/09 12:18:07;;;;;;;1.17;0.17;;;23.50;63.60;;;;;;5083807;28;20154;-77
2021/08/09 12:20:34;;;;;;;0.57;0.10;;;23.80;62.70;;;;;;5055473;28;20041;-77
2021/08/09 12:23:00;;;;;;;0.10;0.10;;;24.00;63.50;;;;;;5063463;28;20029;-77
2021/08/09 12:25:37;;;;;;;0.22;0.10;;;24.00;61.70;;;;;;5075497;28;20458;-77
2021/08/09 12:28:05;;;;;;;0.00;0.00;;;24.20;61.70;;;;;;5075730;28;20099;-77
2021/08/09 12:30:49;;;;;;;0.30;0.10;;;24.20;61.70;;;;;;5068612;28;20085;-77
2021/08/09 12:33:14;;;;;;;0.00;0.00;;;24.30;61.30;;;;;;5055450;28;20449;-77
2021/08/09 12:35:41;;;;;;;0.15;0.10;;;23.60;59.50;;;;;;5066028;28;20037;-77
2021/08/09 12:38:11;;;;;;;0.17;0.10;;;23.70;60.70;;;;;;5075234;28;20489;-77
2021/08/09 12:40:42;;;;;;;0.30;0.13;;;23.40;59.80;;;;;;5069602;28;20021;-77
2021/08/09 12:43:11;;;;;;;0.17;0.10;;;23.80;58.90;;;;;;5055152;28;20045;-77
2021/08/09 12:45:38;;;;;;;0.28;0.13;;;24.00;59.00;;;;;;5061385;28;20035;-77
2021/08/09 12:48:05;;;;;;;0.10;0.00;;;24.40;58.60;;;;;;5073998;28;20047;-77
2021/08/09 12:50:31;;;;;;;0.28;0.10;;;24.60;58.80;;;;;;5075222;28;20024;-77
2021/08/09 12:52:57;;;;;;;0.50;0.20;;;24.90;56.50;;;;;;5073005;28;20017;-77
2021/08/09 12:55:23;;;;;;;0.13;0.10;;;25.20;56.80;;;;;;5055082;28;20051;-77